sensor_id;sensor_type;location;lat;lon;timestamp;P1;durP1;ratioP1;P2;durP2;ratioP2
44068;SDS011;29738;51.234;5.484;2024-03-23T00:52:47;12.93;;;5.10;;
44068;SDS011;29738;51.234;5.484;2024-03-23T00:55:13;17.90;;;5.55;;
44068;SDS011;29738;51.234;5.484;2024-03-23T00:57:39;12.88;;;4.93;;
44068;SDS011;29738;51.234;5.484;2024-03-23T01:00:05;14.93;;;5.40;;
44068;SDS011;29738;51.234;5.484;2024-03-23T01:02:34;13.90;;;6.13;;
44068;SDS011;29738;51.234;5.484;2024-03-23T01:04:59;18.60;;;4.43;;
44068;SDS011;29738;51.234;5.484;2024-03-23T01:07:25;13.15;;;4.60;;
44068;SDS011;29738;51.234;5.484;2024-03-23T01:09:51;15.18;;;6.13;;
44068;SDS011;29738;51.234;5.484;2024-03-23T01:12:18;14.48;;;5.18;;
44068;SDS011;29738;51.234;5.484;2024-03-23T01:14:43;13.25;;;5.03;;
44068;SDS011;29738;51.234;5.484;2024-03-23T01:17:09;15.27;;;5.18;;
44068;SDS011;29738;51.234;5.484;2024-03-23T01:19:35;11.60;;;3.95;;
44068;SDS011;29738;51.234;5.484;2024-03-23T01:22:01;11.20;;;4.22;;
44068;SDS011;29738;51.234;5.484;2024-03-23T01:24:26;10.73;;;3.50;;
44068;SDS011;29738;51.234;5.484;2024-03-23T01:26:52;13.35;;;4.40;;
44068;SDS011;29738;51.234;5.484;2024-03-23T01:29:18;9.95;;;3.55;;
44068;SDS011;29738;51.234;5.484;2024-03-23T01:31:43;12.93;;;4.40;;
44068;SDS011;29738;51.234;5.484;2024-03-23T01:34:09;12.48;;;4.10;;
44068;SDS011;29738;51.234;5.484;2024-03-23T01:36:34;12.93;;;4.57;;
44068;SDS011;29738;51.234;5.484;2024-03-23T01:39:00;13.10;;;3.67;;
44068;SDS011;29738;51.234;5.484;2024-03-23T01:41:26;15.77;;;4.50;;
44068;SDS011;29738;51.234;5.484;2024-03-23T01:43:52;14.73;;;4.93;;
44068;SDS011;29738;51.234;5.484;2024-03-23T01:46:20;19.98;;;4.88;;
44068;SDS011;29738;51.234;5.484;2024-03-23T01:48:46;16.83;;;5.22;;
44068;SDS011;29738;51.234;5.484;2024-03-23T01:51:12;11.00;;;4.22;;
44068;SDS011;29738;51.234;5.484;2024-03-23T01:53:38;17.10;;;5.22;;
44068;SDS011;29738;51.234;5.484;2024-03-23T01:56:04;13.20;;;4.25;;
44068;SDS011;29738;51.234;5.484;2024-03-23T01:58:30;11.50;;;4.65;;
44068;SDS011;29738;51.234;5.484;2024-03-23T02:00:57;17.88;;;5.07;;
44068;SDS011;29738;51.234;5.484;2024-03-23T02:03:26;10.63;;;4.65;;
44068;SDS011;29738;51.234;5.484;2024-03-23T02:05:53;10.18;;;4.60;;
44068;SDS011;29738;51.234;5.484;2024-03-23T02:08:20;11.85;;;4.63;;
44068;SDS011;29738;51.234;5.484;2024-03-23T02:10:46;15.32;;;4.53;;
44068;SDS011;29738;51.234;5.484;2024-03-23T02:13:14;18.58;;;5.70;;
44068;SDS011;29738;51.234;5.484;2024-03-23T02:15:40;14.15;;;4.78;;
44068;SDS011;29738;51.234;5.484;2024-03-23T02:18:09;10.80;;;4.03;;
44068;SDS011;29738;51.234;5.484;2024-03-23T02:20:38;20.98;;;5.10;;
44068;SDS011;29738;51.234;5.484;2024-03-23T02:23:04;12.70;;;5.07;;
44068;SDS011;29738;51.234;5.484;2024-03-23T02:25:33;15.32;;;5.57;;
44068;SDS011;29738;51.234;5.484;2024-03-23T02:27:59;10.50;;;4.57;;
44068;SDS011;29738;51.234;5.484;2024-03-23T02:30:25;9.95;;;4.13;;
44068;SDS011;29738;51.234;5.484;2024-03-23T02:32:51;16.40;;;5.38;;
44068;SDS011;29738;51.234;5.484;2024-03-23T02:35:17;15.00;;;4.63;;
44068;SDS011;29738;51.234;5.484;2024-03-23T02:37:42;15.23;;;4.60;;
44068;SDS011;29738;51.234;5.484;2024-03-23T02:40:08;12.75;;;4.30;;
44068;SDS011;29738;51.234;5.484;2024-03-23T02:42:34;11.05;;;4.85;;
44068;SDS011;29738;51.234;5.484;2024-03-23T02:44:59;14.02;;;4.93;;
44068;SDS011;29738;51.234;5.484;2024-03-23T02:47:25;14.32;;;5.40;;
44068;SDS011;29738;51.234;5.484;2024-03-23T02:49:51;16.35;;;5.50;;
44068;SDS011;29738;51.234;5.484;2024-03-23T02:52:16;15.95;;;4.97;;
44068;SDS011;29738;51.234;5.484;2024-03-23T02:54:42;15.50;;;5.82;;
44068;SDS011;29738;51.234;5.484;2024-03-23T02:57:10;15.38;;;5.60;;
44068;SDS011;29738;51.234;5.484;2024-03-23T02:59:36;13.50;;;5.43;;
44068;SDS011;29738;51.234;5.484;2024-03-23T03:02:01;10.60;;;4.32;;
44068;SDS011;29738;51.234;5.484;2024-03-23T03:04:29;14.43;;;4.22;;
44068;SDS011;29738;51.234;5.484;2024-03-23T03:06:55;17.10;;;5.07;;
44068;SDS011;29738;51.234;5.484;2024-03-23T03:09:21;13.18;;;4.50;;
44068;SDS011;29738;51.234;5.484;2024-03-23T03:11:47;18.83;;;5.10;;
44068;SDS011;29738;51.234;5.484;2024-03-23T03:14:12;17.25;;;4.85;;
44068;SDS011;29738;51.234;5.484;2024-03-23T03:16:38;10.75;;;4.63;;
44068;SDS011;29738;51.234;5.484;2024-03-23T03:19:04;15.13;;;5.13;;
44068;SDS011;29738;51.234;5.484;2024-03-23T03:21:29;16.38;;;5.57;;
44068;SDS011;29738;51.234;5.484;2024-03-23T03:23:55;16.67;;;4.93;;
44068;SDS011;29738;51.234;5.484;2024-03-23T03:26:21;15.05;;;4.85;;
44068;SDS011;29738;51.234;5.484;2024-03-23T03:28:47;21.92;;;5.45;;
44068;SDS011;29738;51.234;5.484;2024-03-23T03:31:17;15.57;;;5.95;;
44068;SDS011;29738;51.234;5.484;2024-03-23T03:33:43;17.80;;;6.18;;
44068;SDS011;29738;51.234;5.484;2024-03-23T03:36:09;19.65;;;5.47;;
44068;SDS011;29738;51.234;5.484;2024-03-23T03:38:35;12.07;;;5.30;;
44068;SDS011;29738;51.234;5.484;2024-03-23T03:41:01;18.52;;;5.78;;
44068;SDS011;29738;51.234;5.484;2024-03-23T03:43:27;15.25;;;6.55;;
44068;SDS011;29738;51.234;5.484;2024-03-23T03:45:53;20.67;;;5.78;;
44068;SDS011;29738;51.234;5.484;2024-03-23T03:48:19;20.52;;;6.68;;
44068;SDS011;29738;51.234;5.484;2024-03-23T03:50:45;12.27;;;5.40;;
44068;SDS011;29738;51.234;5.484;2024-03-23T03:53:11;15.85;;;5.40;;
44068;SDS011;29738;51.234;5.484;2024-03-23T03:55:37;19.05;;;5.97;;
44068;SDS011;29738;51.234;5.484;2024-03-23T03:58:02;18.15;;;5.70;;
44068;SDS011;29738;51.234;5.484;2024-03-23T04:00:29;19.75;;;6.15;;
44068;SDS011;29738;51.234;5.484;2024-03-23T04:02:55;16.60;;;5.90;;
44068;SDS011;29738;51.234;5.484;2024-03-23T04:05:21;14.10;;;6.20;;
44068;SDS011;29738;51.234;5.484;2024-03-23T04:07:47;17.00;;;5.85;;
44068;SDS011;29738;51.234;5.484;2024-03-23T04:10:13;18.05;;;6.40;;
44068;SDS011;29738;51.234;5.484;2024-03-23T04:12:40;14.13;;;5.60;;
44068;SDS011;29738;51.234;5.484;2024-03-23T04:15:06;15.60;;;4.93;;
44068;SDS011;29738;51.234;5.484;2024-03-23T04:17:33;19.83;;;5.20;;
44068;SDS011;29738;51.234;5.484;2024-03-23T04:19:59;23.98;;;6.90;;
44068;SDS011;29738;51.234;5.484;2024-03-23T04:22:26;20.27;;;6.35;;
44068;SDS011;29738;51.234;5.484;2024-03-23T04:24:55;17.58;;;6.35;;
44068;SDS011;29738;51.234;5.484;2024-03-23T04:27:21;16.17;;;5.72;;
44068;SDS011;29738;51.234;5.484;2024-03-23T04:29:48;18.02;;;5.88;;
44068;SDS011;29738;51.234;5.484;2024-03-23T04:32:15;15.85;;;6.18;;
44068;SDS011;29738;51.234;5.484;2024-03-23T04:34:40;13.10;;;5.97;;
44068;SDS011;29738;51.234;5.484;2024-03-23T04:37:06;18.60;;;6.93;;
44068;SDS011;29738;51.234;5.484;2024-03-23T04:39:32;16.73;;;7.20;;
44068;SDS011;29738;51.234;5.484;2024-03-23T04:41:58;15.13;;;5.90;;
44068;SDS011;29738;51.234;5.484;2024-03-23T04:44:24;19.23;;;7.22;;
44068;SDS011;29738;51.234;5.484;2024-03-23T04:46:49;19.50;;;7.22;;
44068;SDS011;29738;51.234;5.484;2024-03-23T04:49:18;24.23;;;8.02;;
44068;SDS011;29738;51.234;5.484;2024-03-23T04:51:44;16.70;;;7.53;;
44068;SDS011;29738;51.234;5.484;2024-03-23T04:54:14;20.27;;;7.45;;
44068;SDS011;29738;51.234;5.484;2024-03-23T04:56:40;25.23;;;8.75;;
44068;SDS011;29738;51.234;5.484;2024-03-23T04:59:06;16.30;;;7.50;;
44068;SDS011;29738;51.234;5.484;2024-03-23T05:01:31;21.02;;;9.00;;
44068;SDS011;29738;51.234;5.484;2024-03-23T05:03:57;27.27;;;8.70;;
44068;SDS011;29738;51.234;5.484;2024-03-23T05:06:24;18.55;;;6.38;;
44068;SDS011;29738;51.234;5.484;2024-03-23T05:08:50;26.60;;;10.45;;
44068;SDS011;29738;51.234;5.484;2024-03-23T05:11:16;23.67;;;9.10;;
44068;SDS011;29738;51.234;5.484;2024-03-23T05:13:43;24.38;;;8.20;;
44068;SDS011;29738;51.234;5.484;2024-03-23T05:16:09;22.38;;;10.05;;
44068;SDS011;29738;51.234;5.484;2024-03-23T05:18:35;24.38;;;10.00;;
44068;SDS011;29738;51.234;5.484;2024-03-23T05:21:01;28.00;;;10.23;;
44068;SDS011;29738;51.234;5.484;2024-03-23T05:23:28;29.88;;;10.00;;
44068;SDS011;29738;51.234;5.484;2024-03-23T05:25:54;21.33;;;8.40;;
44068;SDS011;29738;51.234;5.484;2024-03-23T05:28:20;22.75;;;9.43;;
44068;SDS011;29738;51.234;5.484;2024-03-23T05:30:50;22.25;;;9.73;;
44068;SDS011;29738;51.234;5.484;2024-03-23T05:33:19;24.13;;;9.93;;
44068;SDS011;29738;51.234;5.484;2024-03-23T05:35:45;24.27;;;9.60;;
44068;SDS011;29738;51.234;5.484;2024-03-23T05:38:10;27.05;;;10.27;;
44068;SDS011;29738;51.234;5.484;2024-03-23T05:40:36;23.88;;;8.77;;
44068;SDS011;29738;51.234;5.484;2024-03-23T05:43:05;15.75;;;7.25;;
44068;SDS011;29738;51.234;5.484;2024-03-23T05:45:34;20.73;;;8.38;;
44068;SDS011;29738;51.234;5.484;2024-03-23T05:48:00;23.83;;;8.98;;
44068;SDS011;29738;51.234;5.484;2024-03-23T05:50:25;25.23;;;9.35;;
44068;SDS011;29738;51.234;5.484;2024-03-23T05:52:51;30.73;;;10.30;;
44068;SDS011;29738;51.234;5.484;2024-03-23T05:55:17;30.85;;;10.75;;
44068;SDS011;29738;51.234;5.484;2024-03-23T05:57:43;25.50;;;9.73;;
44068;SDS011;29738;51.234;5.484;2024-03-23T06:00:09;23.30;;;9.00;;
44068;SDS011;29738;51.234;5.484;2024-03-23T06:02:41;18.20;;;8.70;;
44068;SDS011;29738;51.234;5.484;2024-03-23T06:05:10;20.05;;;8.52;;
44068;SDS011;29738;51.234;5.484;2024-03-23T06:07:37;18.52;;;7.65;;
44068;SDS011;29738;51.234;5.484;2024-03-23T06:10:02;16.40;;;8.52;;
44068;SDS011;29738;51.234;5.484;2024-03-23T06:12:29;22.25;;;10.00;;
44068;SDS011;29738;51.234;5.484;2024-03-23T06:14:54;24.30;;;9.57;;
44068;SDS011;29738;51.234;5.484;2024-03-23T06:17:23;17.67;;;7.68;;
44068;SDS011;29738;51.234;5.484;2024-03-23T06:19:48;24.38;;;10.45;;
44068;SDS011;29738;51.234;5.484;2024-03-23T06:22:14;24.90;;;11.25;;
44068;SDS011;29738;51.234;5.484;2024-03-23T06:24:40;27.00;;;9.82;;
44068;SDS011;29738;51.234;5.484;2024-03-23T06:27:06;20.80;;;8.65;;
44068;SDS011;29738;51.234;5.484;2024-03-23T06:29:32;26.23;;;8.98;;
44068;SDS011;29738;51.234;5.484;2024-03-23T06:31:57;18.30;;;6.95;;
44068;SDS011;29738;51.234;5.484;2024-03-23T06:34:23;21.80;;;9.07;;
44068;SDS011;29738;51.234;5.484;2024-03-23T06:36:49;19.13;;;7.60;;
44068;SDS011;29738;51.234;5.484;2024-03-23T06:39:16;16.90;;;6.65;;
44068;SDS011;29738;51.234;5.484;2024-03-23T06:41:42;14.82;;;6.05;;
44068;SDS011;29738;51.234;5.484;2024-03-23T06:44:08;12.98;;;4.35;;
44068;SDS011;29738;51.234;5.484;2024-03-23T06:46:34;11.52;;;5.18;;
44068;SDS011;29738;51.234;5.484;2024-03-23T06:48:59;10.38;;;4.30;;
44068;SDS011;29738;51.234;5.484;2024-03-23T06:51:25;11.02;;;5.00;;
44068;SDS011;29738;51.234;5.484;2024-03-23T06:53:51;8.93;;;4.65;;
44068;SDS011;29738;51.234;5.484;2024-03-23T06:56:16;8.40;;;3.28;;
44068;SDS011;29738;51.234;5.484;2024-03-23T06:58:42;14.18;;;5.03;;
44068;SDS011;29738;51.234;5.484;2024-03-23T07:01:08;12.32;;;4.18;;
44068;SDS011;29738;51.234;5.484;2024-03-23T07:03:33;14.73;;;4.28;;
44068;SDS011;29738;51.234;5.484;2024-03-23T07:05:59;13.68;;;5.47;;
44068;SDS011;29738;51.234;5.484;2024-03-23T07:08:24;12.88;;;4.03;;
44068;SDS011;29738;51.234;5.484;2024-03-23T07:10:50;21.00;;;6.40;;
44068;SDS011;29738;51.234;5.484;2024-03-23T07:13:16;16.15;;;5.55;;
44068;SDS011;29738;51.234;5.484;2024-03-23T07:15:42;23.95;;;6.30;;
44068;SDS011;29738;51.234;5.484;2024-03-23T09:29:20;3.60;;;1.63;;
44068;SDS011;29738;51.234;5.484;2024-03-23T09:31:46;4.80;;;2.10;;
44068;SDS011;29738;51.234;5.484;2024-03-23T09:34:12;4.20;;;1.83;;
44068;SDS011;29738;51.234;5.484;2024-03-23T09:36:39;6.65;;;1.48;;
44068;SDS011;29738;51.234;5.484;2024-03-23T09:39:04;6.43;;;2.40;;
44068;SDS011;29738;51.234;5.484;2024-03-23T09:41:31;4.53;;;2.42;;
44068;SDS011;29738;51.234;5.484;2024-03-23T09:43:57;5.80;;;2.47;;
44068;SDS011;29738;51.234;5.484;2024-03-23T09:46:22;9.15;;;4.15;;
44068;SDS011;29738;51.234;5.484;2024-03-23T09:48:48;7.68;;;3.45;;
44068;SDS011;29738;51.234;5.484;2024-03-23T09:51:14;9.40;;;3.15;;
44068;SDS011;29738;51.234;5.484;2024-03-23T09:53:40;6.60;;;3.22;;
44068;SDS011;29738;51.234;5.484;2024-03-23T09:56:07;9.43;;;3.42;;
44068;SDS011;29738;51.234;5.484;2024-03-23T09:58:33;10.23;;;3.53;;
44068;SDS011;29738;51.234;5.484;2024-03-23T10:01:02;9.00;;;2.90;;
44068;SDS011;29738;51.234;5.484;2024-03-23T10:03:28;9.55;;;3.67;;
44068;SDS011;29738;51.234;5.484;2024-03-23T10:06:00;9.23;;;3.28;;
44068;SDS011;29738;51.234;5.484;2024-03-23T10:08:27;7.97;;;3.38;;
44068;SDS011;29738;51.234;5.484;2024-03-23T10:10:55;9.02;;;4.07;;
44068;SDS011;29738;51.234;5.484;2024-03-23T10:13:27;11.00;;;3.75;;
44068;SDS011;29738;51.234;5.484;2024-03-23T10:15:58;9.63;;;3.42;;
44068;SDS011;29738;51.234;5.484;2024-03-23T10:18:24;10.13;;;5.05;;
44068;SDS011;29738;51.234;5.484;2024-03-23T10:23:35;9.70;;;4.40;;
44068;SDS011;29738;51.234;5.484;2024-03-23T10:26:15;4.32;;;1.88;;
44068;SDS011;29738;51.234;5.484;2024-03-23T10:28:59;3.15;;;1.10;;
44068;SDS011;29738;51.234;5.484;2024-03-23T10:31:30;3.03;;;0.90;;
44068;SDS011;29738;51.234;5.484;2024-03-23T10:33:56;3.78;;;1.05;;
44068;SDS011;29738;51.234;5.484;2024-03-23T10:36:22;7.38;;;1.63;;
44068;SDS011;29738;51.234;5.484;2024-03-23T10:38:49;2.90;;;1.13;;
44068;SDS011;29738;51.234;5.484;2024-03-23T10:41:16;5.72;;;1.52;;
44068;SDS011;29738;51.234;5.484;2024-03-23T10:43:43;6.30;;;1.95;;
44068;SDS011;29738;51.234;5.484;2024-03-23T10:46:11;6.47;;;2.10;;
44068;SDS011;29738;51.234;5.484;2024-03-23T10:48:36;5.55;;;1.60;;
44068;SDS011;29738;51.234;5.484;2024-03-23T10:51:03;5.93;;;1.88;;
44068;SDS011;29738;51.234;5.484;2024-03-23T10:53:30;8.30;;;2.65;;
44068;SDS011;29738;51.234;5.484;2024-03-23T10:55:58;7.68;;;2.17;;
44068;SDS011;29738;51.234;5.484;2024-03-23T10:58:29;10.40;;;2.80;;
44068;SDS011;29738;51.234;5.484;2024-03-23T11:01:06;5.30;;;2.17;;
44068;SDS011;29738;51.234;5.484;2024-03-23T11:03:33;5.90;;;2.50;;
44068;SDS011;29738;51.234;5.484;2024-03-23T11:06:03;6.82;;;2.13;;
44068;SDS011;29738;51.234;5.484;2024-03-23T11:08:37;5.68;;;1.63;;
44068;SDS011;29738;51.234;5.484;2024-03-23T11:11:22;4.75;;;1.50;;
44068;SDS011;29738;51.234;5.484;2024-03-23T11:13:52;4.30;;;1.50;;
44068;SDS011;29738;51.234;5.484;2024-03-23T11:16:26;4.40;;;1.60;;
44068;SDS011;29738;51.234;5.484;2024-03-23T11:18:54;3.47;;;1.35;;
44068;SDS011;29738;51.234;5.484;2024-03-23T11:21:59;5.15;;;1.33;;
44068;SDS011;29738;51.234;5.484;2024-03-23T11:24:25;3.45;;;1.30;;
44068;SDS011;29738;51.234;5.484;2024-03-23T11:26:51;6.00;;;1.73;;
44068;SDS011;29738;51.234;5.484;2024-03-23T11:29:17;5.05;;;2.33;;
44068;SDS011;29738;51.234;5.484;2024-03-23T11:31:50;3.72;;;1.40;;
44068;SDS011;29738;51.234;5.484;2024-03-23T11:34:17;10.25;;;2.08;;
44068;SDS011;29738;51.234;5.484;2024-03-23T11:36:46;9.13;;;4.32;;
44068;SDS011;29738;51.234;5.484;2024-03-23T11:39:19;8.05;;;3.05;;
44068;SDS011;29738;51.234;5.484;2024-03-23T11:41:51;8.18;;;4.72;;
44068;SDS011;29738;51.234;5.484;2024-03-23T11:44:18;4.45;;;1.38;;
44068;SDS011;29738;51.234;5.484;2024-03-23T11:46:44;7.60;;;2.00;;
44068;SDS011;29738;51.234;5.484;2024-03-23T11:51:47;3.28;;;1.17;;
44068;SDS011;29738;51.234;5.484;2024-03-23T11:54:13;10.73;;;5.13;;
44068;SDS011;29738;51.234;5.484;2024-03-23T11:56:39;5.55;;;1.58;;
44068;SDS011;29738;51.234;5.484;2024-03-23T11:59:05;10.00;;;4.22;;
44068;SDS011;29738;51.234;5.484;2024-03-23T12:01:31;5.43;;;1.75;;
44068;SDS011;29738;51.234;5.484;2024-03-23T12:03:57;12.32;;;4.40;;
44068;SDS011;29738;51.234;5.484;2024-03-23T12:06:23;7.72;;;2.60;;
44068;SDS011;29738;51.234;5.484;2024-03-23T12:08:48;16.38;;;8.02;;
44068;SDS011;29738;51.234;5.484;2024-03-23T12:11:17;24.13;;;15.25;;
44068;SDS011;29738;51.234;5.484;2024-03-23T12:13:44;27.08;;;14.73;;
44068;SDS011;29738;51.234;5.484;2024-03-23T12:16:20;19.92;;;10.90;;
44068;SDS011;29738;51.234;5.484;2024-03-23T12:18:49;4.05;;;1.40;;
44068;SDS011;29738;51.234;5.484;2024-03-23T12:21:20;6.95;;;2.53;;
44068;SDS011;29738;51.234;5.484;2024-03-23T12:23:47;9.40;;;2.95;;
44068;SDS011;29738;51.234;5.484;2024-03-23T12:26:15;4.68;;;1.52;;
44068;SDS011;29738;51.234;5.484;2024-03-23T12:28:42;4.47;;;1.60;;
44068;SDS011;29738;51.234;5.484;2024-03-23T12:31:08;7.63;;;2.85;;
44068;SDS011;29738;51.234;5.484;2024-03-23T12:33:33;5.47;;;1.67;;
44068;SDS011;29738;51.234;5.484;2024-03-23T12:35:59;58.90;;;21.83;;
44068;SDS011;29738;51.234;5.484;2024-03-23T12:38:25;65.32;;;23.52;;
44068;SDS011;29738;51.234;5.484;2024-03-23T12:40:50;17.65;;;7.60;;
44068;SDS011;29738;51.234;5.484;2024-03-23T12:43:16;8.73;;;2.60;;
44068;SDS011;29738;51.234;5.484;2024-03-23T12:45:46;7.93;;;2.08;;
44068;SDS011;29738;51.234;5.484;2024-03-23T12:50:40;3.22;;;1.23;;
44068;SDS011;29738;51.234;5.484;2024-03-23T12:53:06;2.17;;;1.00;;
44068;SDS011;29738;51.234;5.484;2024-03-23T12:55:34;3.65;;;1.20;;
44068;SDS011;29738;51.234;5.484;2024-03-23T12:58:00;2.05;;;0.80;;
44068;SDS011;29738;51.234;5.484;2024-03-23T13:00:26;4.07;;;1.00;;
44068;SDS011;29738;51.234;5.484;2024-03-23T13:02:52;1.67;;;0.82;;
44068;SDS011;29738;51.234;5.484;2024-03-23T13:05:17;2.30;;;1.05;;
44068;SDS011;29738;51.234;5.484;2024-03-23T13:07:43;2.67;;;1.40;;
44068;SDS011;29738;51.234;5.484;2024-03-23T13:10:09;3.13;;;1.05;;
44068;SDS011;29738;51.234;5.484;2024-03-23T13:12:35;1.33;;;0.70;;
44068;SDS011;29738;51.234;5.484;2024-03-23T13:15:01;3.78;;;1.25;;
44068;SDS011;29738;51.234;5.484;2024-03-23T13:17:27;4.40;;;1.67;;
44068;SDS011;29738;51.234;5.484;2024-03-23T13:19:53;3.83;;;1.38;;
44068;SDS011;29738;51.234;5.484;2024-03-23T13:22:21;4.68;;;1.98;;
44068;SDS011;29738;51.234;5.484;2024-03-23T13:24:46;6.20;;;2.35;;
44068;SDS011;29738;51.234;5.484;2024-03-23T13:27:15;4.45;;;1.92;;
44068;SDS011;29738;51.234;5.484;2024-03-23T13:29:41;4.40;;;2.13;;
44068;SDS011;29738;51.234;5.484;2024-03-23T13:32:08;6.93;;;2.97;;
44068;SDS011;29738;51.234;5.484;2024-03-23T13:34:34;5.32;;;2.20;;
44068;SDS011;29738;51.234;5.484;2024-03-23T13:37:00;5.68;;;2.00;;
44068;SDS011;29738;51.234;5.484;2024-03-23T13:39:26;6.88;;;2.22;;
44068;SDS011;29738;51.234;5.484;2024-03-23T13:41:54;6.55;;;2.88;;
44068;SDS011;29738;51.234;5.484;2024-03-23T13:44:23;5.95;;;2.38;;
44068;SDS011;29738;51.234;5.484;2024-03-23T13:46:49;5.90;;;2.30;;
44068;SDS011;29738;51.234;5.484;2024-03-23T13:49:33;5.25;;;2.50;;
44068;SDS011;29738;51.234;5.484;2024-03-23T13:51:59;5.50;;;2.28;;
44068;SDS011;29738;51.234;5.484;2024-03-23T13:54:28;9.55;;;3.08;;
44068;SDS011;29738;51.234;5.484;2024-03-23T13:56:54;7.28;;;2.50;;
44068;SDS011;29738;51.234;5.484;2024-03-23T13:59:21;6.70;;;2.63;;
44068;SDS011;29738;51.234;5.484;2024-03-23T14:01:48;7.72;;;2.90;;
44068;SDS011;29738;51.234;5.484;2024-03-23T14:04:14;7.72;;;2.45;;
44068;SDS011;29738;51.234;5.484;2024-03-23T14:06:44;8.25;;;2.28;;
44068;SDS011;29738;51.234;5.484;2024-03-23T14:09:12;5.28;;;1.80;;
44068;SDS011;29738;51.234;5.484;2024-03-23T14:11:39;6.35;;;2.10;;
44068;SDS011;29738;51.234;5.484;2024-03-23T14:14:06;7.90;;;2.75;;
44068;SDS011;29738;51.234;5.484;2024-03-23T14:16:33;9.02;;;2.78;;
44068;SDS011;29738;51.234;5.484;2024-03-23T14:18:58;5.57;;;2.08;;
44068;SDS011;29738;51.234;5.484;2024-03-23T14:21:24;5.80;;;1.88;;
44068;SDS011;29738;51.234;5.484;2024-03-23T14:23:50;7.38;;;2.15;;
44068;SDS011;29738;51.234;5.484;2024-03-23T14:26:16;3.88;;;2.00;;
44068;SDS011;29738;51.234;5.484;2024-03-23T14:28:41;4.15;;;1.40;;
44068;SDS011;29738;51.234;5.484;2024-03-23T14:31:07;2.63;;;1.10;;
44068;SDS011;29738;51.234;5.484;2024-03-23T14:33:38;4.95;;;1.40;;
44068;SDS011;29738;51.234;5.484;2024-03-23T14:36:10;4.22;;;1.50;;
44068;SDS011;29738;51.234;5.484;2024-03-23T14:38:36;2.88;;;1.20;;
44068;SDS011;29738;51.234;5.484;2024-03-23T14:41:02;3.50;;;1.20;;
44068;SDS011;29738;51.234;5.484;2024-03-23T14:43:29;3.60;;;1.60;;
44068;SDS011;29738;51.234;5.484;2024-03-23T14:48:38;5.00;;;2.28;;
44068;SDS011;29738;51.234;5.484;2024-03-23T14:51:05;4.55;;;1.98;;
44068;SDS011;29738;51.234;5.484;2024-03-23T14:53:32;6.10;;;2.00;;
44068;SDS011;29738;51.234;5.484;2024-03-23T14:55:59;7.63;;;3.00;;
44068;SDS011;29738;51.234;5.484;2024-03-23T14:58:26;6.30;;;2.45;;
44068;SDS011;29738;51.234;5.484;2024-03-23T15:00:52;5.60;;;2.55;;
44068;SDS011;29738;51.234;5.484;2024-03-23T15:03:18;7.15;;;2.42;;
44068;SDS011;29738;51.234;5.484;2024-03-23T15:05:53;7.22;;;2.55;;
44068;SDS011;29738;51.234;5.484;2024-03-23T15:08:20;4.82;;;2.05;;
44068;SDS011;29738;51.234;5.484;2024-03-23T15:10:46;5.32;;;2.42;;
44068;SDS011;29738;51.234;5.484;2024-03-23T15:13:12;4.65;;;1.80;;
44068;SDS011;29738;51.234;5.484;2024-03-23T15:15:39;7.63;;;2.50;;
44068;SDS011;29738;51.234;5.484;2024-03-23T15:18:08;16.48;;;10.02;;
44068;SDS011;29738;51.234;5.484;2024-03-23T15:20:40;4.93;;;2.17;;
44068;SDS011;29738;51.234;5.484;2024-03-23T15:23:06;22.75;;;13.52;;
44068;SDS011;29738;51.234;5.484;2024-03-23T15:25:32;8.75;;;4.65;;
44068;SDS011;29738;51.234;5.484;2024-03-23T15:27:59;10.00;;;3.67;;
44068;SDS011;29738;51.234;5.484;2024-03-23T15:30:25;8.38;;;5.18;;
44068;SDS011;29738;51.234;5.484;2024-03-23T15:32:51;5.75;;;2.35;;
44068;SDS011;29738;51.234;5.484;2024-03-23T15:35:17;9.20;;;4.75;;
44068;SDS011;29738;51.234;5.484;2024-03-23T15:37:44;8.45;;;2.53;;
44068;SDS011;29738;51.234;5.484;2024-03-23T15:40:10;41.75;;;32.90;;
44068;SDS011;29738;51.234;5.484;2024-03-23T15:42:38;16.88;;;12.38;;
44068;SDS011;29738;51.234;5.484;2024-03-23T15:45:05;9.52;;;6.28;;
44068;SDS011;29738;51.234;5.484;2024-03-23T15:47:32;4.88;;;2.03;;
44068;SDS011;29738;51.234;5.484;2024-03-23T15:49:58;8.07;;;4.63;;
44068;SDS011;29738;51.234;5.484;2024-03-23T15:52:23;7.88;;;2.33;;
44068;SDS011;29738;51.234;5.484;2024-03-23T15:54:51;9.57;;;4.95;;
44068;SDS011;29738;51.234;5.484;2024-03-23T15:57:17;4.47;;;1.13;;
44068;SDS011;29738;51.234;5.484;2024-03-23T15:59:43;4.93;;;1.85;;
44068;SDS011;29738;51.234;5.484;2024-03-23T16:02:09;5.60;;;2.17;;
44068;SDS011;29738;51.234;5.484;2024-03-23T16:04:34;4.38;;;1.65;;
44068;SDS011;29738;51.234;5.484;2024-03-23T16:07:00;4.85;;;1.45;;
44068;SDS011;29738;51.234;5.484;2024-03-23T16:09:26;3.45;;;1.17;;
44068;SDS011;29738;51.234;5.484;2024-03-23T16:11:53;2.75;;;1.20;;
44068;SDS011;29738;51.234;5.484;2024-03-23T16:14:19;5.00;;;1.52;;
44068;SDS011;29738;51.234;5.484;2024-03-23T16:16:45;6.65;;;2.88;;
44068;SDS011;29738;51.234;5.484;2024-03-23T16:19:10;5.97;;;1.83;;
44068;SDS011;29738;51.234;5.484;2024-03-23T16:21:38;3.75;;;1.27;;
44068;SDS011;29738;51.234;5.484;2024-03-23T16:24:04;2.97;;;1.30;;
44068;SDS011;29738;51.234;5.484;2024-03-23T16:26:29;6.15;;;1.33;;
44068;SDS011;29738;51.234;5.484;2024-03-23T16:28:55;3.75;;;1.10;;
44068;SDS011;29738;51.234;5.484;2024-03-23T16:31:21;4.22;;;1.10;;
44068;SDS011;29738;51.234;5.484;2024-03-23T16:33:47;3.95;;;1.20;;
44068;SDS011;29738;51.234;5.484;2024-03-23T16:36:13;5.32;;;1.05;;
44068;SDS011;29738;51.234;5.484;2024-03-23T16:38:39;4.97;;;1.13;;
44068;SDS011;29738;51.234;5.484;2024-03-23T16:41:12;3.28;;;1.20;;
44068;SDS011;29738;51.234;5.484;2024-03-23T16:43:38;5.07;;;1.60;;
44068;SDS011;29738;51.234;5.484;2024-03-23T16:46:05;4.68;;;1.00;;
44068;SDS011;29738;51.234;5.484;2024-03-23T16:48:39;3.17;;;1.05;;
44068;SDS011;29738;51.234;5.484;2024-03-23T16:51:06;2.85;;;1.00;;
44068;SDS011;29738;51.234;5.484;2024-03-23T16:53:33;5.97;;;2.03;;
44068;SDS011;29738;51.234;5.484;2024-03-23T16:56:00;3.28;;;1.02;;
44068;SDS011;29738;51.234;5.484;2024-03-23T16:58:27;3.50;;;1.15;;
44068;SDS011;29738;51.234;5.484;2024-03-23T17:01:02;2.30;;;0.80;;
44068;SDS011;29738;51.234;5.484;2024-03-23T17:03:28;4.38;;;1.08;;
44068;SDS011;29738;51.234;5.484;2024-03-23T17:05:53;3.92;;;1.10;;
44068;SDS011;29738;51.234;5.484;2024-03-23T17:08:19;4.70;;;1.58;;
44068;SDS011;29738;51.234;5.484;2024-03-23T17:10:45;5.60;;;0.98;;
44068;SDS011;29738;51.234;5.484;2024-03-23T17:13:11;2.53;;;1.00;;
44068;SDS011;29738;51.234;5.484;2024-03-23T17:15:44;3.47;;;1.10;;
44068;SDS011;29738;51.234;5.484;2024-03-23T17:18:10;4.15;;;1.10;;
44068;SDS011;29738;51.234;5.484;2024-03-23T17:20:37;4.30;;;1.13;;
44068;SDS011;29738;51.234;5.484;2024-03-23T17:23:03;3.78;;;1.23;;
44068;SDS011;29738;51.234;5.484;2024-03-23T17:25:29;6.45;;;2.00;;
44068;SDS011;29738;51.234;5.484;2024-03-23T17:27:54;4.82;;;1.48;;
44068;SDS011;29738;51.234;5.484;2024-03-23T17:30:20;7.05;;;1.50;;
44068;SDS011;29738;51.234;5.484;2024-03-23T17:32:46;4.82;;;1.60;;
44068;SDS011;29738;51.234;5.484;2024-03-23T17:35:12;5.10;;;1.20;;
44068;SDS011;29738;51.234;5.484;2024-03-23T17:37:39;4.63;;;1.35;;
44068;SDS011;29738;51.234;5.484;2024-03-23T17:40:06;6.47;;;1.33;;
44068;SDS011;29738;51.234;5.484;2024-03-23T17:42:37;22.60;;;10.13;;
44068;SDS011;29738;51.234;5.484;2024-03-23T17:45:04;9.68;;;4.18;;
44068;SDS011;29738;51.234;5.484;2024-03-23T17:47:36;14.05;;;8.25;;
44068;SDS011;29738;51.234;5.484;2024-03-23T17:50:03;19.70;;;12.05;;
44068;SDS011;29738;51.234;5.484;2024-03-23T17:52:30;9.05;;;4.30;;